Time;durP1;ratioP1;P1;durP2;ratioP2;P2;SDS_P1;SDS_P2;PMS_P1;PMS_P2;Temp;Humidity;BMP_temperature;BMP_pressure;BME280_temperature;BME280_humidity;BME280_pressure;Samples;Min_cycle;Max_cycle;Signal;HPM_P1;HPM_P2
2020/12/17 00:01:27;;;;;;;21.98;15.23;;;;;;;7.87;86.79;99002.81;4932231;29;21152;-84
2020/12/17 00:03:54;;;;;;;32.92;20.13;;;;;;;7.85;86.60;99006.50;4945206;29;20223;-83
2020/12/17 00:06:38;;;;;;;14.57;12.10;;;;;;;7.76;86.94;98996.31;4924117;28;20212;-84
2020/12/17 00:09:10;;;;;;;17.20;12.05;;;;;;;7.74;87.23;99003.56;4963182;28;20223;-83
2020/12/17 00:11:37;;;;;;;19.52;14.18;;;;;;;7.82;87.02;98993.28;4883270;29;20221;-83
2020/12/17 00:14:05;;;;;;;22.98;16.45;;;;;;;7.80;86.22;98995.19;4881439;29;20233;-85
2020/12/17 00:20:26;;;;;;;53.05;31.42;;;;;;;7.49;86.86;98989.84;4935993;29;20235;-85
2020/12/17 00:22:57;;;;;;;57.60;31.55;;;;;;;7.36;87.14;98988.78;4906568;29;20320;-84
2020/12/17 00:25:35;;;;;;;37.47;21.88;;;;;;;7.29;87.39;98990.06;4932323;29;20231;-84
2020/12/17 00:28:02;;;;;;;36.53;22.45;;;;;;;7.24;87.83;98982.31;4903506;28;20188;-84
2020/12/17 00:30:31;;;;;;;21.35;14.57;;;;;;;7.20;88.16;98990.59;4933690;29;20224;-84
2020/12/17 00:33:03;;;;;;;28.00;16.92;;;;;;;7.10;88.45;98989.34;4914922;29;20228;-84
2020/12/17 00:35:41;;;;;;;22.42;15.27;;;;;;;7.07;88.70;98994.88;4925288;28;20334;-83
2020/12/17 00:38:12;;;;;;;27.23;16.20;;;;;;;7.04;88.75;98995.00;4931383;29;20216;-83
2020/12/17 00:40:45;;;;;;;17.23;11.23;;;;;;;6.97;89.35;98996.28;4945027;29;20243;-83
2020/12/17 00:43:20;;;;;;;15.00;10.30;;;;;;;6.98;89.58;98998.00;4922709;28;20253;-84
2020/12/17 00:45:54;;;;;;;12.38;9.65;;;;;;;6.98;89.56;98995.34;4956062;29;20230;-83
2020/12/17 00:48:20;;;;;;;16.45;11.35;;;;;;;6.96;89.54;98997.25;4954425;29;20271;-84
2020/12/17 00:50:47;;;;;;;17.20;12.10;;;;;;;6.94;89.69;99000.00;4954169;29;20254;-84
2020/12/17 00:53:15;;;;;;;23.70;16.00;;;;;;;6.93;89.59;98997.38;4955828;28;20208;-82
2020/12/17 00:55:42;;;;;;;38.95;23.65;;;;;;;6.94;89.56;99002.66;4933560;28;20271;-84
2020/12/17 00:58:18;;;;;;;46.65;26.65;;;;;;;6.93;89.34;99000.94;4938106;28;20235;-84
2020/12/17 01:00:44;;;;;;;40.25;25.83;;;;;;;6.94;89.26;99002.66;4945645;29;20291;-83
2020/12/17 01:03:10;;;;;;;36.15;24.30;;;;;;;6.97;89.17;98993.63;4946358;29;20226;-84
2020/12/17 01:05:37;;;;;;;38.22;25.50;;;;;;;6.91;89.02;99004.63;4966668;28;20216;-84
2020/12/17 01:08:03;;;;;;;45.90;27.48;;;;;;;6.87;88.99;99000.38;4960115;29;20233;-85
2020/12/17 01:10:29;;;;;;;33.70;23.55;;;;;;;6.85;89.21;98999.59;4977171;28;20262;-82
2020/12/17 01:12:56;;;;;;;30.85;20.58;;;;;;;6.87;89.47;99006.59;4979361;29;20223;-84
2020/12/17 01:15:22;;;;;;;27.52;18.17;;;;;;;6.88;89.21;99008.31;4975032;28;20216;-84
2020/12/17 01:17:50;;;;;;;29.00;19.70;;;;;;;6.90;89.20;99000.25;4982691;23;20212;-83
2020/12/17 01:20:17;;;;;;;26.05;16.75;;;;;;;6.86;89.20;99006.69;4944890;29;20260;-83
2020/12/17 01:22:43;;;;;;;25.33;16.63;;;;;;;6.84;89.15;99004.09;4945730;29;20328;-83
2020/12/17 01:25:09;;;;;;;23.17;15.55;;;;;;;6.81;89.09;99003.38;4911657;29;20197;-83
2020/12/17 01:27:35;;;;;;;22.60;15.18;;;;;;;6.98;88.39;98998.00;4926441;29;20200;-83
2020/12/17 01:30:03;;;;;;;21.25;14.25;;;;;;;6.93;88.66;99000.94;4935540;28;20223;-85
2020/12/17 01:32:29;;;;;;;19.58;14.20;;;;;;;6.90;88.66;98997.56;4927786;28;20228;-82
2020/12/17 01:34:55;;;;;;;20.27;14.80;;;;;;;6.89;88.72;99002.03;4941985;28;20296;-84
2020/12/17 01:37:23;;;;;;;19.48;14.23;;;;;;;6.92;88.64;99009.03;4932163;29;20234;-84
2020/12/17 01:39:49;;;;;;;18.23;12.07;;;;;;;6.93;88.81;99013.41;4939993;28;20217;-84
2020/12/17 01:42:17;;;;;;;15.70;11.20;;;;;;;7.00;88.59;99017.50;4917511;29;20240;-84
2020/12/17 01:44:46;;;;;;;11.40;8.85;;;;;;;7.03;88.43;99017.34;4934452;29;20742;-84
2020/12/17 01:47:12;;;;;;;10.98;8.60;;;;;;;7.09;88.33;99025.03;4915246;29;20217;-84
2020/12/17 01:49:42;;;;;;;13.52;10.10;;;;;;;7.14;88.09;99018.50;4927973;28;20228;-83
2020/12/17 01:52:08;;;;;;;10.90;7.55;;;;;;;7.22;87.76;99021.63;4936752;28;20205;-83
2020/12/17 01:54:34;;;;;;;12.77;8.50;;;;;;;7.28;87.56;99021.28;4952950;28;20301;-84
2020/12/17 01:57:05;;;;;;;10.77;6.60;;;;;;;7.40;87.17;99015.28;4933034;29;20240;-84
2020/12/17 01:59:46;;;;;;;9.75;7.13;;;;;;;7.42;86.68;99020.53;4942335;29;20236;-83
2020/12/17 02:02:15;;;;;;;8.80;7.57;;;;;;;7.41;86.96;99016.16;4940409;28;20324;-83
2020/12/17 02:04:42;;;;;;;9.07;7.35;;;;;;;7.44;86.75;99018.63;4960868;29;20232;-84
2020/12/17 02:07:08;;;;;;;7.63;6.40;;;;;;;7.58;85.77;99011.59;4929504;29;20209;-85
2020/12/17 02:09:34;;;;;;;5.60;5.00;;;;;;;7.96;84.26;99017.47;4931054;29;20193;-84
2020/12/17 02:12:00;;;;;;;6.55;5.55;;;;;;;7.95;84.36;99013.06;4929842;29;20336;-85
2020/12/17 02:14:27;;;;;;;7.25;5.20;;;;;;;7.93;84.10;99009.63;4905069;29;20232;-85
2020/12/17 02:16:54;;;;;;;5.53;4.50;;;;;;;8.30;83.44;99006.59;4932703;29;20233;-84
2020/12/17 02:19:21;;;;;;;7.03;3.85;;;;;;;8.64;81.30;99007.19;4897017;29;20726;-84
2020/12/17 02:21:48;;;;;;;5.25;4.20;;;;;;;8.77;80.74;98999.25;4923359;29;20595;-84
2020/12/17 02:24:19;;;;;;;5.13;4.53;;;;;;;8.67;80.81;99004.31;4918325;29;20228;-84
2020/12/17 02:26:46;;;;;;;5.47;4.30;;;;;;;8.69;80.52;99004.22;4920764;29;20619;-85
2020/12/17 02:29:12;;;;;;;5.25;4.43;;;;;;;8.58;80.80;99009.34;4919531;29;20326;-84
2020/12/17 02:31:38;;;;;;;4.70;4.10;;;;;;;8.47;81.53;99006.44;4923344;29;20236;-84
2020/12/17 02:34:05;;;;;;;5.30;4.53;;;;;;;8.49;81.72;99009.91;4921249;29;20824;-83
2020/12/17 02:36:31;;;;;;;5.93;4.43;;;;;;;8.52;81.39;99010.59;4925181;29;20295;-83
2020/12/17 02:38:58;;;;;;;4.13;3.70;;;;;;;8.62;80.88;99010.91;4905574;29;20233;-83
2020/12/17 02:41:25;;;;;;;5.65;4.00;;;;;;;8.78;80.21;99006.34;4922352;29;20221;-83
2020/12/17 02:43:52;;;;;;;4.28;3.88;;;;;;;8.68;80.61;99007.84;4918725;29;20240;-82
2020/12/17 02:46:19;;;;;;;4.00;3.60;;;;;;;8.84;79.99;98997.91;4918481;29;20255;-83
2020/12/17 02:48:53;;;;;;;4.53;4.10;;;;;;;9.03;79.19;98996.72;4905875;29;20192;-83
2020/12/17 02:51:20;;;;;;;7.00;4.40;;;;;;;9.41;77.46;98997.88;4906213;29;20235;-83
2020/12/17 02:53:47;;;;;;;6.18;4.20;;;;;;;9.44;77.69;99002.19;4920519;29;20231;-83
2020/12/17 02:56:14;;;;;;;7.57;3.85;;;;;;;9.42;76.94;98996.03;4925927;29;20252;-83
2020/12/17 02:58:41;;;;;;;3.78;3.42;;;;;;;9.50;76.72;98991.91;4933289;29;20236;-83
2020/12/17 03:01:07;;;;;;;4.05;3.35;;;;;;;9.63;76.31;98992.03;4909785;29;20277;-82
2020/12/17 03:03:34;;;;;;;3.85;3.40;;;;;;;9.71;75.46;98987.00;4919958;29;20245;-85
2020/12/17 03:06:00;;;;;;;4.20;3.72;;;;;;;9.46;76.64;98989.53;4933257;28;20228;-84
2020/12/17 03:08:26;;;;;;;4.22;3.83;;;;;;;9.59;76.37;98995.84;4942776;29;20229;-84
2020/12/17 03:10:54;;;;;;;5.32;3.75;;;;;;;9.38;76.87;98991.84;4926772;28;20280;-84
2020/12/17 03:13:22;;;;;;;5.90;3.70;;;;;;;9.41;76.62;98987.16;4926897;29;20246;-83
2020/12/17 03:15:49;;;;;;;6.45;4.00;;;;;;;9.39;77.16;98983.69;4929013;29;20203;-84
2020/12/17 03:18:16;;;;;;;5.00;3.63;;;;;;;9.32;77.31;98982.34;4940999;28;20228;-83
2020/12/17 03:20:43;;;;;;;4.18;3.47;;;;;;;9.61;75.87;98983.19;4910250;29;20714;-84
2020/12/17 03:23:09;;;;;;;4.10;3.55;;;;;;;9.60;75.71;98984.16;4925507;29;20232;-83
2020/12/17 03:25:35;;;;;;;5.00;4.50;;;;;;;9.66;76.04;98981.06;4909945;29;20229;-83
2020/12/17 03:28:01;;;;;;;7.10;4.30;;;;;;;9.58;76.16;98986.91;4928728;28;20264;-83
2020/12/17 03:30:28;;;;;;;4.55;3.40;;;;;;;9.54;76.19;98992.59;4926091;29;20273;-84
2020/12/17 03:32:54;;;;;;;4.47;3.20;;;;;;;9.52;75.79;98990.00;4933616;29;20228;-83
2020/12/17 03:35:20;;;;;;;4.25;3.85;;;;;;;9.38;76.63;98994.53;4957126;28;20228;-84
2020/12/17 03:37:46;;;;;;;4.93;3.33;;;;;;;9.52;76.28;98986.47;4902138;29;20240;-82
2020/12/17 03:40:12;;;;;;;3.90;3.60;;;;;;;9.63;75.96;98994.72;4936731;29;20220;-84
2020/12/17 03:42:39;;;;;;;4.65;3.63;;;;;;;9.72;75.41;98991.41;4930842;28;20205;-82
2020/12/17 03:45:06;;;;;;;4.05;3.35;;;;;;;9.80;75.10;98999.84;4938765;29;20205;-84
2020/12/17 03:47:32;;;;;;;4.25;3.85;;;;;;;9.66;75.50;98998.06;4925251;29;20233;-84
2020/12/17 03:49:59;;;;;;;4.30;3.90;;;;;;;9.78;74.96;98999.91;4925480;29;20284;-84
2020/12/17 03:52:25;;;;;;;4.35;3.95;;;;;;;9.76;74.80;99001.84;4925124;28;20657;-84
2020/12/17 03:54:51;;;;;;;3.97;3.63;;;;;;;9.65;75.69;99001.66;4923869;29;20204;-84
2020/12/17 03:57:17;;;;;;;4.85;4.35;;;;;;;9.64;75.76;99004.47;4936779;29;20240;-84
2020/12/17 03:59:44;;;;;;;4.10;3.70;;;;;;;9.64;75.70;99001.78;4921558;29;20243;-84
2020/12/17 04:02:10;;;;;;;4.85;3.60;;;;;;;9.64;75.38;98997.25;4926867;29;20228;-84
2020/12/17 04:04:36;;;;;;;5.63;3.72;;;;;;;9.61;75.46;98997.47;4930551;29;20228;-84
2020/12/17 04:07:02;;;;;;;4.75;3.65;;;;;;;9.88;74.02;98998.38;4918714;29;20260;-84
2020/12/17 04:09:28;;;;;;;5.65;3.50;;;;;;;9.86;74.37;98997.63;4917130;29;20284;-84
2020/12/17 04:11:54;;;;;;;4.03;3.33;;;;;;;9.83;74.33;98995.13;4915606;29;20830;-84
2020/12/17 04:14:20;;;;;;;6.23;4.23;;;;;;;9.78;74.27;99004.44;4923993;29;20472;-84
2020/12/17 04:16:46;;;;;;;6.13;4.32;;;;;;;9.60;75.36;99005.63;4937917;28;20477;-85
2020/12/17 04:19:13;;;;;;;3.80;3.38;;;;;;;9.72;74.80;99002.16;4922672;29;20235;-84
2020/12/17 04:21:39;;;;;;;4.45;4.05;;;;;;;9.58;75.49;99004.88;4926599;29;20203;-84
2020/12/17 04:24:05;;;;;;;4.53;3.60;;;;;;;9.37;76.09;99011.56;4934075;29;20226;-84
2020/12/17 04:26:31;;;;;;;3.90;3.60;;;;;;;9.19;76.81;99012.72;4927900;29;20232;-84
2020/12/17 04:29:01;;;;;;;4.85;4.07;;;;;;;9.55;76.10;99005.91;4926381;28;20235;-84
2020/12/17 04:31:28;;;;;;;3.55;3.25;;;;;;;9.48;76.54;99003.72;4926411;29;20225;-84
2020/12/17 04:33:54;;;;;;;4.47;3.50;;;;;;;9.76;75.22;99001.00;4955505;28;20220;-85
2020/12/17 04:36:21;;;;;;;4.43;3.42;;;;;;;9.67;76.48;99005.16;4958937;28;20236;-84
2020/12/17 04:38:47;;;;;;;5.93;3.80;;;;;;;9.67;75.78;99009.63;4909528;29;20612;-84
2020/12/17 04:41:18;;;;;;;6.18;4.00;;;;;;;9.82;74.84;99003.31;4918283;29;20315;-85
2020/12/17 04:43:47;;;;;;;4.75;4.35;;;;;;;9.86;74.56;99002.13;4943560;29;20301;-84
2020/12/17 04:46:18;;;;;;;5.03;3.60;;;;;;;9.88;74.41;99005.56;4930743;29;20220;-84
2020/12/17 04:48:51;;;;;;;3.95;3.65;;;;;;;9.72;74.72;99004.84;4945507;29;20300;-84
2020/12/17 04:51:19;;;;;;;4.20;3.80;;;;;;;9.73;75.04;99015.50;4928616;29;20256;-84
2020/12/17 04:53:47;;;;;;;4.55;4.15;;;;;;;9.54;75.61;99006.88;4927604;29;20232;-84
2020/12/17 04:56:14;;;;;;;4.97;4.10;;;;;;;9.39;76.40;99025.78;4930258;29;20234;-84
2020/12/17 04:58:46;;;;;;;5.03;4.47;;;;;;;9.21;77.13;99019.72;4945285;29;20240;-84
2020/12/17 05:01:18;;;;;;;5.28;4.63;;;;;;;9.16;77.74;99019.16;4926311;29;20272;-84
2020/12/17 05:03:48;;;;;;;4.95;4.47;;;;;;;9.34;77.03;99026.06;4933771;29;20230;-84
2020/12/17 05:06:22;;;;;;;4.80;3.95;;;;;;;9.60;76.20;99024.41;4925211;28;20247;-85
2020/12/17 05:08:54;;;;;;;4.22;3.90;;;;;;;9.48;76.48;99033.22;4923981;29;20242;-84
2020/12/17 05:11:20;;;;;;;4.22;3.80;;;;;;;9.45;77.05;99033.44;4915421;29;20596;-84
2020/12/17 05:13:47;;;;;;;6.82;4.40;;;;;;;9.48;76.48;99033.22;4926871;29;20241;-83
2020/12/17 05:16:14;;;;;;;5.43;3.88;;;;;;;9.64;75.86;99034.00;4956042;28;20189;-83
2020/12/17 05:18:40;;;;;;;5.70;4.10;;;;;;;9.66;75.84;99037.44;4936040;29;20319;-84
2020/12/17 05:21:07;;;;;;;4.40;4.00;;;;;;;9.70;75.90;99036.31;4932703;29;20280;-84
2020/12/17 05:23:33;;;;;;;4.22;3.83;;;;;;;9.59;76.17;99038.78;4933460;29;20327;-84
2020/12/17 05:25:59;;;;;;;5.63;4.22;;;;;;;9.73;75.69;99039.66;4928775;28;20233;-84
2020/12/17 05:28:25;;;;;;;4.78;4.13;;;;;;;9.79;75.50;99052.69;4932296;29;20220;-85
2020/12/17 05:30:51;;;;;;;4.30;3.90;;;;;;;9.72;75.87;99058.53;4931049;29;20232;-84
2020/12/17 05:33:20;;;;;;;5.53;4.45;;;;;;;9.69;76.28;99061.41;4928608;28;20238;-85
2020/12/17 05:35:48;;;;;;;4.95;4.35;;;;;;;9.72;76.24;99070.16;4942254;29;20224;-85
2020/12/17 05:38:21;;;;;;;4.30;3.90;;;;;;;9.66;75.73;99073.22;4943296;28;20320;-85
2020/12/17 05:40:48;;;;;;;4.50;4.10;;;;;;;9.69;75.96;99078.38;4936043;29;20235;-85
2020/12/17 05:43:20;;;;;;;4.03;3.72;;;;;;;9.67;75.96;99077.63;4959009;28;20300;-84
2020/12/17 05:45:46;;;;;;;4.40;3.90;;;;;;;9.66;76.22;99086.66;4932528;29;20211;-84
2020/12/17 05:48:19;;;;;;;4.97;4.15;;;;;;;9.56;76.61;99081.91;4927048;29;20719;-85
2020/12/17 05:50:57;;;;;;;4.72;4.28;;;;;;;9.71;75.90;99091.72;4933140;28;20241;-84
2020/12/17 05:53:27;;;;;;;5.75;4.80;;;;;;;9.66;76.31;99086.66;4927907;29;20689;-85
2020/12/17 05:56:08;;;;;;;4.88;4.35;;;;;;;9.63;76.42;99100.25;4940277;29;20231;-84
2020/12/17 05:58:41;;;;;;;5.47;4.53;;;;;;;9.49;76.75;99105.63;4930692;29;20236;-84
2020/12/17 06:01:14;;;;;;;5.03;4.53;;;;;;;9.42;76.74;99106.06;4933266;29;20268;-84
2020/12/17 06:03:40;;;;;;;8.02;4.88;;;;;;;9.48;76.84;99111.06;4943555;29;20296;-83
2020/12/17 06:06:08;;;;;;;6.15;4.80;;;;;;;9.36;77.05;99109.13;4938115;28;20276;-85
2020/12/17 06:08:36;;;;;;;6.10;4.75;;;;;;;9.40;77.25;99108.88;4935776;29;20228;-86
2020/12/17 06:11:04;;;;;;;7.30;4.90;;;;;;;9.23;77.89;99110.81;4935835;29;20224;-85
2020/12/17 06:14:01;;;;;;;5.38;4.88;;;;;;;9.31;77.64;99114.78;4928763;28;20245;-85
2020/12/17 06:16:28;;;;;;;6.55;5.18;;;;;;;9.10;78.22;99112.53;4908280;29;20229;-85
2020/12/17 06:18:58;;;;;;;6.50;5.25;;;;;;;9.20;77.99;99119.94;4945335;29;20228;-85
2020/12/17 06:21:25;;;;;;;5.40;4.85;;;;;;;9.19;77.72;99114.69;4917089;28;20280;-84
2020/12/17 06:24:00;;;;;;;5.93;4.97;;;;;;;9.08;78.26;99133.22;4902591;29;20353;-85
2020/12/17 06:26:26;;;;;;;6.78;5.65;;;;;;;8.88;78.85;99129.03;4927228;29;20224;-85
2020/12/17 06:28:54;;;;;;;6.68;5.20;;;;;;;8.91;79.38;99136.03;4927781;29;20224;-85
2020/12/17 06:31:29;;;;;;;8.82;5.18;;;;;;;9.02;79.12;99133.59;4930863;28;20262;-85
2020/12/17 06:34:07;;;;;;;7.30;5.78;;;;;;;8.82;79.74;99136.56;4930979;29;20220;-85
2020/12/17 06:36:44;;;;;;;6.40;5.45;;;;;;;8.84;79.90;99145.38;4929864;29;20228;-85
2020/12/17 06:39:10;;;;;;;8.35;5.30;;;;;;;8.85;79.85;99144.44;4924371;29;20606;-85
2020/12/17 06:41:37;;;;;;;8.80;6.00;;;;;;;8.96;79.43;99142.00;4909473;29;20272;-84
2020/12/17 06:44:27;;;;;;;6.53;5.75;;;;;;;8.81;79.96;99161.66;4928301;29;20236;-86
2020/12/17 06:47:00;;;;;;;7.22;5.70;;;;;;;8.68;80.32;99155.28;4938820;28;20209;-84
2020/12/17 06:49:28;;;;;;;6.20;5.55;;;;;;;8.69;80.84;99151.66;4938537;29;20216;-84
2020/12/17 06:52:09;;;;;;;6.20;5.05;;;;;;;8.81;80.67;99165.19;4939281;28;20264;-85
2020/12/17 06:54:40;;;;;;;6.50;5.68;;;;;;;8.73;80.79;99170.13;4954805;28;20683;-86
2020/12/17 06:57:16;;;;;;;6.47;5.78;;;;;;;9.00;80.12;99165.84;4943954;29;20232;-86
2020/12/17 06:59:46;;;;;;;8.20;6.70;;;;;;;8.88;80.14;99168.41;4926990;28;20247;-83
2020/12/17 07:02:20;;;;;;;8.13;6.40;;;;;;;8.88;80.04;99176.44;4925327;29;20209;-85
2020/12/17 07:04:48;;;;;;;6.18;5.57;;;;;;;8.89;80.23;99178.16;4948622;28;20236;-83
2020/12/17 07:07:20;;;;;;;5.65;5.15;;;;;;;8.93;80.05;99179.72;4955835;28;20180;-83
2020/12/17 07:09:58;;;;;;;9.90;7.68;;;;;;;8.87;80.54;99190.81;4965407;28;20199;-82
2020/12/17 07:12:36;;;;;;;13.02;6.47;;;;;;;8.90;80.58;99185.25;4949711;28;20220;-84
2020/12/17 07:15:06;;;;;;;9.40;5.95;;;;;;;9.17;79.85;99199.72;4937916;29;20224;-84
2020/12/17 07:17:41;;;;;;;7.75;5.75;;;;;;;9.19;79.39;99205.88;4928987;28;20231;-84
2020/12/17 07:20:35;;;;;;;6.72;6.03;;;;;;;9.33;79.35;99208.63;4939641;29;20429;-85
2020/12/17 07:23:04;;;;;;;6.90;5.80;;;;;;;9.41;78.90;99211.69;4930190;29;20224;-84
2020/12/17 07:25:34;;;;;;;6.00;5.50;;;;;;;9.86;76.86;99208.91;4908631;29;20247;-84
2020/12/17 07:28:00;;;;;;;7.22;5.90;;;;;;;9.84;76.79;99210.84;4942195;28;20198;-85
2020/12/17 07:30:29;;;;;;;9.05;5.55;;;;;;;9.88;76.57;99217.72;4935223;29;20201;-84
2020/12/17 07:32:56;;;;;;;10.35;5.22;;;;;;;9.96;76.23;99213.63;4927740;29;20225;-86
2020/12/17 07:35:27;;;;;;;8.85;7.00;;;;;;;10.03;76.05;99216.81;4931246;29;20319;-85
2020/12/17 07:38:01;;;;;;;8.30;5.82;;;;;;;10.07;76.36;99218.34;4928798;29;20233;-84
2020/12/17 07:40:33;;;;;;;6.70;5.80;;;;;;;10.21;75.66;99221.06;4940158;29;20239;-85
2020/12/17 07:43:06;;;;;;;5.97;5.38;;;;;;;10.23;75.48;99216.47;4951936;28;20211;-84
2020/12/17 07:45:41;;;;;;;5.30;4.80;;;;;;;10.28;75.30;99208.97;4951460;28;20220;-83
2020/12/17 07:48:58;;;;;;;8.40;4.82;;;;;;;10.34;74.82;99212.13;4933424;29;20212;-83
2020/12/17 07:51:24;;;;;;;7.47;4.70;;;;;;;10.40;74.65;99216.28;4909442;29;20233;-84
2020/12/17 07:53:52;;;;;;;6.50;5.50;;;;;;;10.42;74.60;99222.41;4935919;29;20228;-83
2020/12/17 07:56:21;;;;;;;7.28;5.38;;;;;;;10.45;74.56;99225.75;4927578;29;20232;-85
2020/12/17 07:58:52;;;;;;;10.15;4.97;;;;;;;10.52;74.27;99227.09;4927532;28;20229;-85
2020/12/17 08:01:18;;;;;;;6.30;4.90;;;;;;;10.51;74.31;99224.50;4926354;29;20679;-85
2020/12/17 08:03:50;;;;;;;7.38;5.65;;;;;;;10.51;74.64;99229.88;4928823;29;20220;-85
2020/12/17 08:06:22;;;;;;;6.00;5.15;;;;;;;10.56;74.51;99231.31;4911655;29;20220;-84
2020/12/17 08:08:53;;;;;;;5.78;5.18;;;;;;;10.61;74.44;99239.94;4927379;29;20213;-85
2020/12/17 08:11:33;;;;;;;7.53;5.38;;;;;;;10.61;74.53;99242.63;4926630;29;20794;-84
2020/12/17 08:14:04;;;;;;;6.32;5.47;;;;;;;10.70;74.21;99238.47;4914012;29;20256;-85
2020/12/17 08:16:32;;;;;;;8.60;5.30;;;;;;;10.71;73.98;99242.88;4909202;29;20236;-84
2020/12/17 08:18:59;;;;;;;9.80;5.85;;;;;;;10.73;74.48;99244.53;4931962;29;20219;-83
2020/12/17 08:21:27;;;;;;;7.25;5.15;;;;;;;10.81;73.85;99246.72;4934354;29;20248;-84
2020/12/17 08:23:53;;;;;;;7.82;5.50;;;;;;;10.81;73.83;99257.50;4918928;29;20281;-85
2020/12/17 08:26:38;;;;;;;7.47;6.70;;;;;;;10.78;74.23;99260.41;4922071;29;20220;-84
2020/12/17 08:29:04;;;;;;;8.00;6.47;;;;;;;10.84;73.94;99268.03;4926297;29;20231;-85
2020/12/17 08:31:36;;;;;;;8.80;5.05;;;;;;;10.80;74.11;99261.16;4925308;29;20225;-83
2020/12/17 08:34:04;;;;;;;7.35;5.35;;;;;;;10.76;74.18;99265.88;4913210;28;20229;-86
2020/12/17 08:36:33;;;;;;;7.50;5.95;;;;;;;10.79;74.29;99268.34;4919904;29;20205;-84
2020/12/17 08:39:10;;;;;;;6.28;5.15;;;;;;;10.84;74.29;99279.69;4945477;29;20217;-83
2020/12/17 08:41:53;;;;;;;6.25;5.60;;;;;;;10.87;74.31;99287.56;4917848;29;20256;-83
2020/12/17 08:44:34;;;;;;;6.80;5.65;;;;;;;10.81;74.21;99289.78;4917269;29;20254;-85
2020/12/17 08:47:06;;;;;;;5.80;5.15;;;;;;;10.86;74.68;99295.72;4934599;29;20236;-85
2020/12/17 08:49:33;;;;;;;10.88;6.75;;;;;;;10.91;74.54;99299.00;4931641;29;20242;-84
2020/12/17 08:52:03;;;;;;;8.45;6.07;;;;;;;10.84;75.05;99301.19;4943990;29;20189;-85
2020/12/17 08:54:32;;;;;;;7.28;6.30;;;;;;;10.85;75.40;99315.53;4920650;29;20240;-85
2020/12/17 08:57:04;;;;;;;9.20;6.70;;;;;;;10.73;76.68;99321.69;4906676;29;20589;-85
2020/12/17 08:59:31;;;;;;;9.35;7.30;;;;;;;10.70;77.69;99316.47;4927306;29;20224;-85
2020/12/17 09:01:58;;;;;;;9.52;7.32;;;;;;;10.67;78.44;99330.97;4930404;29;20611;-85
2020/12/17 09:04:25;;;;;;;9.15;6.53;;;;;;;10.69;79.23;99330.88;4923924;29;20233;-84
2020/12/17 09:06:55;;;;;;;9.77;6.72;;;;;;;10.56;80.06;99340.69;4897855;29;20213;-86
2020/12/17 09:09:26;;;;;;;6.30;5.80;;;;;;;10.53;80.41;99347.09;4907194;29;20227;-85
2020/12/17 09:12:03;;;;;;;7.68;5.68;;;;;;;10.44;80.92;99352.19;4919189;28;20217;-86
2020/12/17 09:14:33;;;;;;;7.57;6.00;;;;;;;10.40;81.50;99345.28;4925250;29;20280;-86
2020/12/17 09:17:14;;;;;;;7.35;6.65;;;;;;;10.42;81.11;99354.13;4933766;29;20335;-84
2020/12/17 09:19:45;;;;;;;10.10;7.05;;;;;;;10.44;81.67;99354.88;4928297;29;20213;-86
2020/12/17 09:22:18;;;;;;;12.48;7.25;;;;;;;10.41;81.56;99368.53;4918669;28;20236;-85
2020/12/17 09:24:50;;;;;;;8.68;5.97;;;;;;;10.52;81.41;99376.78;4925759;28;20224;-86
2020/12/17 09:27:54;;;;;;;8.93;6.00;;;;;;;10.50;81.40;99382.25;4895534;29;20233;-85
2020/12/17 09:30:20;;;;;;;9.38;6.68;;;;;;;10.43;81.57;99388.97;4932693;29;20228;-86
2020/12/17 09:33:02;;;;;;;7.65;6.63;;;;;;;10.47;81.21;99392.34;4917146;29;20232;-85
2020/12/17 09:35:35;;;;;;;8.27;7.07;;;;;;;10.52;81.27;99390.22;4939568;29;20288;-86
2020/12/17 09:38:09;;;;;;;9.30;6.78;;;;;;;10.51;80.97;99401.94;4921394;29;20223;-86
2020/12/17 09:40:44;;;;;;;7.13;6.43;;;;;;;10.47;80.81;99403.09;4905323;29;20672;-85
2020/12/17 09:43:15;;;;;;;11.63;8.43;;;;;;;10.45;80.81;99397.81;4944010;28;20267;-86
2020/12/17 09:45:48;;;;;;;8.10;6.85;;;;;;;10.46;81.44;99401.38;4922148;29;20228;-86
2020/12/17 09:48:30;;;;;;;9.50;6.95;;;;;;;10.60;80.95;99407.63;4936655;29;20224;-86
2020/12/17 09:51:02;;;;;;;8.23;6.68;;;;;;;10.61;80.54;99409.34;4947499;29;20251;-85
2020/12/17 09:53:37;;;;;;;7.93;7.22;;;;;;;10.72;80.57;99408.72;4942285;29;20894;-86
2020/12/17 09:56:22;;;;;;;9.93;7.65;;;;;;;10.81;80.16;99405.44;4927203;29;20231;-86
2020/12/17 09:58:51;;;;;;;11.00;7.20;;;;;;;10.97;79.43;99406.19;4923531;29;20221;-85
2020/12/17 10:01:17;;;;;;;10.15;7.13;;;;;;;11.00;79.35;99416.78;4931209;29;20201;-84
2020/12/17 10:03:54;;;;;;;7.22;6.28;;;;;;;11.03;78.60;99414.75;4934458;29;20288;-89
2020/12/17 10:06:24;;;;;;;8.00;6.95;;;;;;;11.05;79.32;99415.50;4927551;29;20497;-88
2020/12/17 10:08:52;;;;;;;9.60;7.07;;;;;;;11.16;78.37;99414.84;4906960;28;20220;-86
2020/12/17 10:11:19;;;;;;;7.80;7.03;;;;;;;11.14;78.25;99416.75;4925114;29;20232;-86
2020/12/17 10:13:45;;;;;;;8.05;7.25;;;;;;;11.22;78.59;99422.53;4896243;28;20248;-87
2020/12/17 10:16:15;;;;;;;8.30;7.40;;;;;;;11.27;77.92;99420.41;4895251;29;20212;-86
2020/12/17 10:18:42;;;;;;;8.77;6.40;;;;;;;11.25;77.67;99425.03;4925625;29;20213;-84
2020/12/17 10:21:10;;;;;;;7.85;6.75;;;;;;;11.41;77.27;99429.34;4922127;29;20334;-86
2020/12/17 10:23:37;;;;;;;9.95;6.28;;;;;;;11.48;76.74;99424.41;4865568;29;20262;-83
2020/12/17 10:26:04;;;;;;;6.80;6.13;;;;;;;11.54;76.55;99424.00;4946994;28;20232;-83
2020/12/17 10:28:31;;;;;;;7.65;5.65;;;;;;;11.61;75.88;99422.69;4934453;28;20205;-83
2020/12/17 10:30:58;;;;;;;11.45;7.55;;;;;;;11.57;76.36;99423.81;4938039;29;20284;-83
2020/12/17 10:33:25;;;;;;;7.95;5.88;;;;;;;11.64;75.48;99425.19;4930444;29;20241;-83
2020/12/17 10:35:52;;;;;;;7.78;6.50;;;;;;;11.62;75.66;99422.59;4923405;29;20244;-84
2020/12/17 10:38:21;;;;;;;175.48;20.00;;;;;;;11.84;75.95;99425.63;4914312;29;20232;-84
2020/12/17 10:40:51;;;;;;;14.75;8.38;;;;;;;11.91;74.87;99439.53;4919490;29;20238;-82
2020/12/17 10:43:23;;;;;;;7.13;6.28;;;;;;;11.95;74.65;99439.22;4919079;29;20232;-83
2020/12/17 10:45:55;;;;;;;7.15;5.47;;;;;;;11.87;74.68;99438.88;4937513;29;20207;-83
2020/12/17 10:48:50;;;;;;;7.80;5.57;;;;;;;11.73;74.88;99440.75;4938067;29;20225;-84
2020/12/17 10:51:26;;;;;;;5.10;4.70;;;;;;;11.79;74.01;99446.59;4925927;28;20233;-84
2020/12/17 10:53:52;;;;;;;6.43;5.10;;;;;;;11.63;74.66;99440.47;4889767;29;20232;-84
2020/12/17 10:56:19;;;;;;;9.63;5.95;;;;;;;11.59;75.09;99436.28;4930692;29;20231;-85
2020/12/17 10:58:49;;;;;;;13.32;5.68;;;;;;;11.59;74.62;99438.09;4931138;29;20240;-85
2020/12/17 11:01:20;;;;;;;6.75;5.75;;;;;;;11.40;75.04;99449.16;4920617;29;20226;-85
2020/12/17 11:03:46;;;;;;;6.18;5.68;;;;;;;11.43;75.00;99456.16;4933240;29;20252;-85
2020/12/17 11:07:03;;;;;;;42.65;30.60;;;;;;;11.50;74.94;99444.03;4945102;28;20260;-86
2020/12/17 11:09:31;;;;;;;14.68;5.53;;;;;;;11.42;75.07;99444.53;4941393;28;20272;-84
2020/12/17 11:12:01;;;;;;;7.47;5.25;;;;;;;11.46;74.55;99442.50;4941972;28;20228;-86
2020/12/17 11:14:29;;;;;;;4.93;4.38;;;;;;;11.52;73.98;99436.72;4920472;29;20236;-85
2020/12/17 11:16:56;;;;;;;5.53;4.90;;;;;;;11.54;73.96;99440.16;4919122;29;20601;-86
2020/12/17 11:19:22;;;;;;;5.03;4.55;;;;;;;11.60;74.38;99442.50;4902187;29;20228;-85
2020/12/17 11:21:52;;;;;;;5.25;4.75;;;;;;;11.55;74.46;99441.94;4929481;29;20201;-86
2020/12/17 11:24:18;;;;;;;6.05;4.10;;;;;;;11.48;74.20;99446.81;4941556;29;20606;-86
2020/12/17 11:26:49;;;;;;;4.63;4.18;;;;;;;11.43;73.48;99443.56;4926025;29;20208;-86
2020/12/17 11:29:16;;;;;;;5.47;4.95;;;;;;;11.61;73.89;99444.22;4919557;29;20576;-87
2020/12/17 11:31:46;;;;;;;5.75;4.57;;;;;;;11.69;72.58;99455.41;4924307;29;20219;-86
2020/12/17 11:34:13;;;;;;;4.53;4.13;;;;;;;11.68;72.11;99448.28;4909961;29;20193;-86
2020/12/17 11:36:40;;;;;;;5.28;4.13;;;;;;;11.58;72.49;99439.94;4927499;29;20204;-86
2020/12/17 11:39:06;;;;;;;5.45;5.05;;;;;;;11.70;72.68;99435.56;4925961;29;20587;-86
2020/12/17 11:41:33;;;;;;;4.20;3.80;;;;;;;11.73;71.85;99441.63;4930112;29;20207;-86
2020/12/17 11:43:59;;;;;;;4.55;4.15;;;;;;;11.78;71.82;99438.63;4929220;29;20217;-86
2020/12/17 11:46:32;;;;;;;5.03;4.47;;;;;;;11.86;72.23;99447.06;4884089;29;20255;-87
2020/12/17 11:48:58;;;;;;;4.05;3.65;;;;;;;11.79;71.76;99440.34;4933753;28;20244;-86
2020/12/17 11:51:24;;;;;;;4.78;3.55;;;;;;;11.80;71.80;99439.38;4941598;28;20191;-86
2020/12/17 11:53:50;;;;;;;5.20;3.80;;;;;;;11.74;71.52;99440.66;4966599;28;20210;-86